sensor_id;sensor_type;location;lat;lon;timestamp;P1;durP1;ratioP1;P2;durP2;ratioP2
20671;SDS011;10495;50.922;4.760;2022-11-15T00:01:48;14.67;;;10.63;;
20671;SDS011;10495;50.922;4.760;2022-11-15T00:04:14;17.07;;;11.00;;
20671;SDS011;10495;50.922;4.760;2022-11-15T00:06:40;18.60;;;12.77;;
20671;SDS011;10495;50.922;4.760;2022-11-15T00:09:05;20.77;;;12.60;;
20671;SDS011;10495;50.922;4.760;2022-11-15T00:11:31;19.63;;;13.37;;
20671;SDS011;10495;50.922;4.760;2022-11-15T00:13:57;16.27;;;11.60;;
20671;SDS011;10495;50.922;4.760;2022-11-15T00:16:23;18.13;;;11.97;;
20671;SDS011;10495;50.922;4.760;2022-11-15T00:18:52;17.97;;;11.93;;
20671;SDS011;10495;50.922;4.760;2022-11-15T00:21:17;22.37;;;13.43;;
20671;SDS011;10495;50.922;4.760;2022-11-15T00:23:43;15.83;;;11.03;;
20671;SDS011;10495;50.922;4.760;2022-11-15T00:26:11;18.20;;;12.50;;
20671;SDS011;10495;50.922;4.760;2022-11-15T00:28:38;20.47;;;13.83;;
20671;SDS011;10495;50.922;4.760;2022-11-15T00:31:05;16.63;;;10.87;;
20671;SDS011;10495;50.922;4.760;2022-11-15T00:33:32;18.30;;;11.73;;
20671;SDS011;10495;50.922;4.760;2022-11-15T00:38:32;16.40;;;11.67;;
20671;SDS011;10495;50.922;4.760;2022-11-15T00:40:59;20.07;;;12.87;;
20671;SDS011;10495;50.922;4.760;2022-11-15T00:43:25;20.90;;;12.17;;
20671;SDS011;10495;50.922;4.760;2022-11-15T00:45:51;17.13;;;12.87;;
20671;SDS011;10495;50.922;4.760;2022-11-15T00:48:16;15.73;;;11.57;;
20671;SDS011;10495;50.922;4.760;2022-11-15T00:50:42;16.50;;;11.33;;
20671;SDS011;10495;50.922;4.760;2022-11-15T00:53:08;17.53;;;11.63;;
20671;SDS011;10495;50.922;4.760;2022-11-15T00:55:33;14.03;;;10.07;;
20671;SDS011;10495;50.922;4.760;2022-11-15T00:57:59;15.27;;;10.63;;
20671;SDS011;10495;50.922;4.760;2022-11-15T01:00:24;15.57;;;10.53;;
20671;SDS011;10495;50.922;4.760;2022-11-15T01:02:50;18.17;;;12.60;;
20671;SDS011;10495;50.922;4.760;2022-11-15T01:05:16;15.50;;;10.60;;
20671;SDS011;10495;50.922;4.760;2022-11-15T01:07:41;18.53;;;12.53;;
20671;SDS011;10495;50.922;4.760;2022-11-15T01:10:07;20.20;;;13.17;;
20671;SDS011;10495;50.922;4.760;2022-11-15T01:12:33;21.97;;;13.37;;
20671;SDS011;10495;50.922;4.760;2022-11-15T01:15:00;18.73;;;12.63;;
20671;SDS011;10495;50.922;4.760;2022-11-15T01:17:26;16.13;;;12.33;;
20671;SDS011;10495;50.922;4.760;2022-11-15T01:19:51;16.00;;;11.67;;
20671;SDS011;10495;50.922;4.760;2022-11-15T01:22:17;15.87;;;11.00;;
20671;SDS011;10495;50.922;4.760;2022-11-15T01:24:43;16.47;;;10.77;;
20671;SDS011;10495;50.922;4.760;2022-11-15T01:27:09;16.73;;;11.83;;
20671;SDS011;10495;50.922;4.760;2022-11-15T01:29:34;20.13;;;12.80;;
20671;SDS011;10495;50.922;4.760;2022-11-15T01:32:00;15.80;;;12.00;;
20671;SDS011;10495;50.922;4.760;2022-11-15T01:34:26;18.87;;;13.07;;
20671;SDS011;10495;50.922;4.760;2022-11-15T01:36:51;14.40;;;11.00;;
20671;SDS011;10495;50.922;4.760;2022-11-15T01:39:17;15.97;;;12.47;;
20671;SDS011;10495;50.922;4.760;2022-11-15T01:41:43;20.07;;;13.80;;
20671;SDS011;10495;50.922;4.760;2022-11-15T01:46:53;18.80;;;12.77;;
20671;SDS011;10495;50.922;4.760;2022-11-15T01:49:21;15.07;;;11.97;;
20671;SDS011;10495;50.922;4.760;2022-11-15T01:51:48;17.47;;;12.53;;
20671;SDS011;10495;50.922;4.760;2022-11-15T01:54:14;18.60;;;12.70;;
20671;SDS011;10495;50.922;4.760;2022-11-15T01:56:52;19.67;;;13.10;;
20671;SDS011;10495;50.922;4.760;2022-11-15T01:59:22;19.87;;;12.90;;
20671;SDS011;10495;50.922;4.760;2022-11-15T02:01:48;20.17;;;13.60;;
20671;SDS011;10495;50.922;4.760;2022-11-15T02:04:18;21.53;;;14.53;;
20671;SDS011;10495;50.922;4.760;2022-11-15T02:06:56;21.60;;;12.87;;
20671;SDS011;10495;50.922;4.760;2022-11-15T02:09:22;22.93;;;15.27;;
20671;SDS011;10495;50.922;4.760;2022-11-15T02:11:47;24.47;;;14.67;;
20671;SDS011;10495;50.922;4.760;2022-11-15T02:14:15;23.93;;;14.97;;
20671;SDS011;10495;50.922;4.760;2022-11-15T02:32:58;18.73;;;13.90;;
20671;SDS011;10495;50.922;4.760;2022-11-15T02:38:18;20.03;;;14.47;;
20671;SDS011;10495;50.922;4.760;2022-11-15T02:41:02;17.60;;;13.07;;
20671;SDS011;10495;50.922;4.760;2022-11-15T02:43:39;20.43;;;13.77;;
20671;SDS011;10495;50.922;4.760;2022-11-15T02:46:32;18.23;;;12.33;;
20671;SDS011;10495;50.922;4.760;2022-11-15T02:49:31;15.43;;;11.67;;
20671;SDS011;10495;50.922;4.760;2022-11-15T02:51:59;15.47;;;11.37;;
20671;SDS011;10495;50.922;4.760;2022-11-15T02:54:25;17.40;;;11.70;;
20671;SDS011;10495;50.922;4.760;2022-11-15T02:56:59;18.37;;;12.80;;
20671;SDS011;10495;50.922;4.760;2022-11-15T02:59:44;14.20;;;10.57;;
20671;SDS011;10495;50.922;4.760;2022-11-15T03:02:40;21.37;;;14.17;;
20671;SDS011;10495;50.922;4.760;2022-11-15T03:07:53;17.47;;;12.50;;
20671;SDS011;10495;50.922;4.760;2022-11-15T03:10:26;24.47;;;13.40;;
20671;SDS011;10495;50.922;4.760;2022-11-15T03:13:14;16.00;;;10.93;;
20671;SDS011;10495;50.922;4.760;2022-11-15T03:15:57;18.10;;;11.90;;
20671;SDS011;10495;50.922;4.760;2022-11-15T03:18:38;18.23;;;12.70;;
20671;SDS011;10495;50.922;4.760;2022-11-15T03:21:08;18.60;;;12.43;;
20671;SDS011;10495;50.922;4.760;2022-11-15T03:23:37;17.33;;;12.00;;
20671;SDS011;10495;50.922;4.760;2022-11-15T03:26:05;16.40;;;12.17;;
20671;SDS011;10495;50.922;4.760;2022-11-15T03:28:39;19.47;;;12.90;;
20671;SDS011;10495;50.922;4.760;2022-11-15T03:31:19;15.70;;;12.03;;
20671;SDS011;10495;50.922;4.760;2022-11-15T03:34:07;14.40;;;10.47;;
20671;SDS011;10495;50.922;4.760;2022-11-15T03:36:36;16.73;;;10.90;;
20671;SDS011;10495;50.922;4.760;2022-11-15T03:39:04;21.00;;;13.93;;
20671;SDS011;10495;50.922;4.760;2022-11-15T03:41:35;17.73;;;11.53;;
20671;SDS011;10495;50.922;4.760;2022-11-15T03:47:20;14.63;;;11.23;;
20671;SDS011;10495;50.922;4.760;2022-11-15T03:49:53;19.67;;;12.20;;
20671;SDS011;10495;50.922;4.760;2022-11-15T03:52:30;17.17;;;12.43;;
20671;SDS011;10495;50.922;4.760;2022-11-15T03:54:58;19.47;;;12.70;;
20671;SDS011;10495;50.922;4.760;2022-11-15T03:57:26;17.50;;;13.03;;
20671;SDS011;10495;50.922;4.760;2022-11-15T03:59:52;17.37;;;13.03;;
20671;SDS011;10495;50.922;4.760;2022-11-15T04:02:17;20.20;;;13.00;;
20671;SDS011;10495;50.922;4.760;2022-11-15T04:04:43;17.90;;;12.17;;
20671;SDS011;10495;50.922;4.760;2022-11-15T04:07:09;17.77;;;13.33;;
20671;SDS011;10495;50.922;4.760;2022-11-15T04:09:34;20.07;;;12.67;;
20671;SDS011;10495;50.922;4.760;2022-11-15T04:12:20;23.40;;;13.43;;
20671;SDS011;10495;50.922;4.760;2022-11-15T04:14:56;13.50;;;10.80;;
20671;SDS011;10495;50.922;4.760;2022-11-15T04:17:39;16.67;;;12.07;;
20671;SDS011;10495;50.922;4.760;2022-11-15T04:20:11;15.13;;;11.10;;
20671;SDS011;10495;50.922;4.760;2022-11-15T04:22:59;15.47;;;10.93;;
20671;SDS011;10495;50.922;4.760;2022-11-15T04:25:45;19.27;;;10.17;;
20671;SDS011;10495;50.922;4.760;2022-11-15T04:28:14;16.23;;;10.53;;
20671;SDS011;10495;50.922;4.760;2022-11-15T04:30:39;20.30;;;11.37;;
20671;SDS011;10495;50.922;4.760;2022-11-15T04:33:05;13.50;;;9.73;;
20671;SDS011;10495;50.922;4.760;2022-11-15T04:35:30;17.77;;;10.53;;
20671;SDS011;10495;50.922;4.760;2022-11-15T04:37:56;14.13;;;9.93;;
20671;SDS011;10495;50.922;4.760;2022-11-15T04:40:23;13.03;;;8.73;;
20671;SDS011;10495;50.922;4.760;2022-11-15T04:42:48;14.93;;;8.80;;
20671;SDS011;10495;50.922;4.760;2022-11-15T04:45:14;17.00;;;10.33;;
20671;SDS011;10495;50.922;4.760;2022-11-15T04:47:40;13.87;;;8.87;;
20671;SDS011;10495;50.922;4.760;2022-11-15T04:50:07;16.00;;;9.83;;
20671;SDS011;10495;50.922;4.760;2022-11-15T04:52:33;14.73;;;8.60;;
20671;SDS011;10495;50.922;4.760;2022-11-15T04:54:59;13.20;;;9.00;;
20671;SDS011;10495;50.922;4.760;2022-11-15T04:57:24;13.13;;;9.40;;
20671;SDS011;10495;50.922;4.760;2022-11-15T04:59:50;15.57;;;10.17;;
20671;SDS011;10495;50.922;4.760;2022-11-15T05:02:15;13.43;;;9.17;;
20671;SDS011;10495;50.922;4.760;2022-11-15T05:04:41;11.40;;;7.60;;
20671;SDS011;10495;50.922;4.760;2022-11-15T05:07:06;12.13;;;8.20;;
20671;SDS011;10495;50.922;4.760;2022-11-15T05:09:32;14.70;;;8.80;;
20671;SDS011;10495;50.922;4.760;2022-11-15T05:11:58;12.07;;;8.07;;
20671;SDS011;10495;50.922;4.760;2022-11-15T05:14:23;11.30;;;8.00;;
20671;SDS011;10495;50.922;4.760;2022-11-15T05:16:49;10.53;;;6.97;;
20671;SDS011;10495;50.922;4.760;2022-11-15T05:19:14;13.80;;;8.33;;
20671;SDS011;10495;50.922;4.760;2022-11-15T05:21:40;12.93;;;8.00;;
20671;SDS011;10495;50.922;4.760;2022-11-15T05:24:06;10.40;;;7.47;;
20671;SDS011;10495;50.922;4.760;2022-11-15T05:26:31;12.17;;;7.80;;
20671;SDS011;10495;50.922;4.760;2022-11-15T05:28:58;12.53;;;8.07;;
20671;SDS011;10495;50.922;4.760;2022-11-15T05:31:24;9.43;;;7.13;;
20671;SDS011;10495;50.922;4.760;2022-11-15T05:33:50;10.47;;;7.80;;
20671;SDS011;10495;50.922;4.760;2022-11-15T05:36:18;11.50;;;6.50;;
20671;SDS011;10495;50.922;4.760;2022-11-15T05:38:58;13.10;;;7.27;;
20671;SDS011;10495;50.922;4.760;2022-11-15T05:41:30;10.60;;;7.20;;
20671;SDS011;10495;50.922;4.760;2022-11-15T05:44:01;10.93;;;6.87;;
20671;SDS011;10495;50.922;4.760;2022-11-15T05:46:31;9.87;;;6.10;;
20671;SDS011;10495;50.922;4.760;2022-11-15T05:48:58;10.77;;;7.37;;
20671;SDS011;10495;50.922;4.760;2022-11-15T05:51:24;10.50;;;6.07;;
20671;SDS011;10495;50.922;4.760;2022-11-15T05:53:51;12.87;;;6.70;;
20671;SDS011;10495;50.922;4.760;2022-11-15T05:56:18;8.27;;;5.93;;
20671;SDS011;10495;50.922;4.760;2022-11-15T05:58:43;13.00;;;7.00;;
20671;SDS011;10495;50.922;4.760;2022-11-15T06:01:09;12.63;;;6.07;;
20671;SDS011;10495;50.922;4.760;2022-11-15T06:03:35;6.87;;;5.20;;
20671;SDS011;10495;50.922;4.760;2022-11-15T06:06:00;6.07;;;4.93;;
20671;SDS011;10495;50.922;4.760;2022-11-15T06:08:26;9.60;;;6.53;;
20671;SDS011;10495;50.922;4.760;2022-11-15T06:10:52;14.13;;;6.80;;
20671;SDS011;10495;50.922;4.760;2022-11-15T06:13:17;7.73;;;5.93;;
20671;SDS011;10495;50.922;4.760;2022-11-15T06:15:43;9.23;;;6.40;;
20671;SDS011;10495;50.922;4.760;2022-11-15T06:18:09;11.93;;;6.30;;
20671;SDS011;10495;50.922;4.760;2022-11-15T06:20:34;8.07;;;6.07;;
20671;SDS011;10495;50.922;4.760;2022-11-15T06:23:00;14.47;;;6.47;;
20671;SDS011;10495;50.922;4.760;2022-11-15T06:25:28;11.93;;;6.33;;
20671;SDS011;10495;50.922;4.760;2022-11-15T06:27:54;11.60;;;5.70;;
20671;SDS011;10495;50.922;4.760;2022-11-15T06:30:21;8.20;;;6.70;;
20671;SDS011;10495;50.922;4.760;2022-11-15T06:32:47;8.53;;;5.83;;
20671;SDS011;10495;50.922;4.760;2022-11-15T06:35:13;9.77;;;6.93;;
20671;SDS011;10495;50.922;4.760;2022-11-15T06:37:39;11.10;;;7.23;;
20671;SDS011;10495;50.922;4.760;2022-11-15T06:40:06;10.73;;;7.53;;
20671;SDS011;10495;50.922;4.760;2022-11-15T06:42:33;10.03;;;6.87;;
20671;SDS011;10495;50.922;4.760;2022-11-15T06:44:58;12.40;;;7.27;;
20671;SDS011;10495;50.922;4.760;2022-11-15T06:47:24;9.80;;;6.63;;
20671;SDS011;10495;50.922;4.760;2022-11-15T06:49:50;11.83;;;7.87;;
20671;SDS011;10495;50.922;4.760;2022-11-15T06:52:15;11.20;;;6.70;;
20671;SDS011;10495;50.922;4.760;2022-11-15T06:54:43;12.13;;;7.70;;
20671;SDS011;10495;50.922;4.760;2022-11-15T06:57:09;12.23;;;7.23;;
20671;SDS011;10495;50.922;4.760;2022-11-15T06:59:34;15.17;;;8.23;;
20671;SDS011;10495;50.922;4.760;2022-11-15T07:02:00;10.07;;;6.37;;
20671;SDS011;10495;50.922;4.760;2022-11-15T07:04:25;13.67;;;7.27;;
20671;SDS011;10495;50.922;4.760;2022-11-15T07:06:51;8.97;;;6.43;;
20671;SDS011;10495;50.922;4.760;2022-11-15T07:09:16;7.47;;;5.60;;
20671;SDS011;10495;50.922;4.760;2022-11-15T07:11:42;8.30;;;5.97;;
20671;SDS011;10495;50.922;4.760;2022-11-15T07:14:08;7.67;;;6.20;;
20671;SDS011;10495;50.922;4.760;2022-11-15T07:16:33;10.73;;;6.13;;
20671;SDS011;10495;50.922;4.760;2022-11-15T07:18:59;11.00;;;6.40;;
20671;SDS011;10495;50.922;4.760;2022-11-15T07:21:24;8.07;;;5.90;;
20671;SDS011;10495;50.922;4.760;2022-11-15T07:23:50;8.37;;;5.50;;
20671;SDS011;10495;50.922;4.760;2022-11-15T07:26:16;14.20;;;7.30;;
20671;SDS011;10495;50.922;4.760;2022-11-15T07:28:41;9.67;;;5.93;;
20671;SDS011;10495;50.922;4.760;2022-11-15T07:31:07;10.40;;;6.23;;
20671;SDS011;10495;50.922;4.760;2022-11-15T07:33:33;8.73;;;5.33;;
20671;SDS011;10495;50.922;4.760;2022-11-15T07:36:00;9.67;;;5.53;;
20671;SDS011;10495;50.922;4.760;2022-11-15T07:38:32;9.73;;;4.80;;
20671;SDS011;10495;50.922;4.760;2022-11-15T07:40:59;8.60;;;5.10;;
20671;SDS011;10495;50.922;4.760;2022-11-15T07:43:27;9.73;;;5.50;;
20671;SDS011;10495;50.922;4.760;2022-11-15T07:45:54;10.07;;;6.00;;
20671;SDS011;10495;50.922;4.760;2022-11-15T07:48:20;7.93;;;5.67;;
20671;SDS011;10495;50.922;4.760;2022-11-15T07:50:45;5.97;;;4.60;;
20671;SDS011;10495;50.922;4.760;2022-11-15T07:53:11;8.90;;;4.80;;
20671;SDS011;10495;50.922;4.760;2022-11-15T07:55:38;6.87;;;4.67;;
20671;SDS011;10495;50.922;4.760;2022-11-15T07:58:05;6.43;;;5.30;;
20671;SDS011;10495;50.922;4.760;2022-11-15T08:00:33;9.03;;;5.90;;
20671;SDS011;10495;50.922;4.760;2022-11-15T08:03:07;9.57;;;5.57;;
20671;SDS011;10495;50.922;4.760;2022-11-15T08:05:34;10.53;;;6.67;;
20671;SDS011;10495;50.922;4.760;2022-11-15T08:08:02;6.50;;;5.03;;
20671;SDS011;10495;50.922;4.760;2022-11-15T08:10:28;8.97;;;5.70;;
20671;SDS011;10495;50.922;4.760;2022-11-15T08:13:01;8.93;;;5.00;;
20671;SDS011;10495;50.922;4.760;2022-11-15T08:15:29;9.60;;;5.23;;
20671;SDS011;10495;50.922;4.760;2022-11-15T08:17:56;7.10;;;4.50;;
20671;SDS011;10495;50.922;4.760;2022-11-15T08:20:23;9.83;;;5.43;;
20671;SDS011;10495;50.922;4.760;2022-11-15T08:22:50;6.70;;;5.27;;
20671;SDS011;10495;50.922;4.760;2022-11-15T08:25:16;6.80;;;3.63;;
20671;SDS011;10495;50.922;4.760;2022-11-15T08:27:42;7.43;;;3.93;;
20671;SDS011;10495;50.922;4.760;2022-11-15T08:30:08;4.70;;;2.63;;
20671;SDS011;10495;50.922;4.760;2022-11-15T08:32:34;5.30;;;2.77;;
20671;SDS011;10495;50.922;4.760;2022-11-15T08:34:59;4.57;;;2.60;;
20671;SDS011;10495;50.922;4.760;2022-11-15T08:37:25;4.20;;;1.97;;
20671;SDS011;10495;50.922;4.760;2022-11-15T08:39:51;4.57;;;2.10;;
20671;SDS011;10495;50.922;4.760;2022-11-15T08:42:16;4.67;;;2.23;;
20671;SDS011;10495;50.922;4.760;2022-11-15T08:44:42;2.60;;;2.07;;
20671;SDS011;10495;50.922;4.760;2022-11-15T08:47:08;4.53;;;1.80;;
20671;SDS011;10495;50.922;4.760;2022-11-15T08:49:37;6.90;;;1.80;;
20671;SDS011;10495;50.922;4.760;2022-11-15T08:52:02;3.20;;;1.50;;
20671;SDS011;10495;50.922;4.760;2022-11-15T08:54:28;4.47;;;1.57;;
20671;SDS011;10495;50.922;4.760;2022-11-15T08:56:54;3.87;;;1.80;;
20671;SDS011;10495;50.922;4.760;2022-11-15T08:59:19;3.33;;;1.50;;
20671;SDS011;10495;50.922;4.760;2022-11-15T09:01:45;6.83;;;1.87;;
20671;SDS011;10495;50.922;4.760;2022-11-15T09:04:10;3.20;;;1.47;;
20671;SDS011;10495;50.922;4.760;2022-11-15T09:06:36;4.73;;;1.50;;
20671;SDS011;10495;50.922;4.760;2022-11-15T09:09:01;2.80;;;1.60;;
20671;SDS011;10495;50.922;4.760;2022-11-15T09:11:28;5.37;;;1.60;;
20671;SDS011;10495;50.922;4.760;2022-11-15T09:13:53;5.07;;;1.80;;
20671;SDS011;10495;50.922;4.760;2022-11-15T09:16:19;3.30;;;1.77;;
20671;SDS011;10495;50.922;4.760;2022-11-15T09:18:45;7.57;;;1.77;;
20671;SDS011;10495;50.922;4.760;2022-11-15T09:21:11;6.57;;;2.30;;
20671;SDS011;10495;50.922;4.760;2022-11-15T09:23:37;4.50;;;1.77;;
20671;SDS011;10495;50.922;4.760;2022-11-15T09:26:03;3.90;;;1.23;;
20671;SDS011;10495;50.922;4.760;2022-11-15T09:28:30;2.93;;;1.70;;
20671;SDS011;10495;50.922;4.760;2022-11-15T09:30:59;4.83;;;1.97;;
20671;SDS011;10495;50.922;4.760;2022-11-15T09:33:26;3.43;;;1.97;;
20671;SDS011;10495;50.922;4.760;2022-11-15T09:35:52;1.70;;;1.40;;
20671;SDS011;10495;50.922;4.760;2022-11-15T09:38:18;4.37;;;1.70;;
20671;SDS011;10495;50.922;4.760;2022-11-15T09:40:44;3.93;;;1.50;;
20671;SDS011;10495;50.922;4.760;2022-11-15T09:43:24;2.73;;;1.30;;
20671;SDS011;10495;50.922;4.760;2022-11-15T09:46:06;3.13;;;1.80;;
20671;SDS011;10495;50.922;4.760;2022-11-15T09:48:55;5.33;;;1.70;;
20671;SDS011;10495;50.922;4.760;2022-11-15T09:51:26;4.23;;;1.70;;
20671;SDS011;10495;50.922;4.760;2022-11-15T09:56:35;4.20;;;1.40;;
20671;SDS011;10495;50.922;4.760;2022-11-15T10:01:54;8.53;;;1.87;;
20671;SDS011;10495;50.922;4.760;2022-11-15T10:04:21;5.40;;;1.47;;
20671;SDS011;10495;50.922;4.760;2022-11-15T10:07:01;2.53;;;1.30;;
20671;SDS011;10495;50.922;4.760;2022-11-15T10:09:41;5.13;;;1.67;;
20671;SDS011;10495;50.922;4.760;2022-11-15T10:12:29;6.20;;;1.47;;
20671;SDS011;10495;50.922;4.760;2022-11-15T10:15:00;3.27;;;1.60;;
20671;SDS011;10495;50.922;4.760;2022-11-15T10:20:21;4.60;;;1.53;;
20671;SDS011;10495;50.922;4.760;2022-11-15T10:22:53;5.13;;;1.50;;
20671;SDS011;10495;50.922;4.760;2022-11-15T10:25:33;2.70;;;1.50;;
20671;SDS011;10495;50.922;4.760;2022-11-15T10:28:13;2.93;;;1.27;;
20671;SDS011;10495;50.922;4.760;2022-11-15T10:30:54;4.03;;;1.77;;
20671;SDS011;10495;50.922;4.760;2022-11-15T10:33:31;4.27;;;1.80;;
20671;SDS011;10495;50.922;4.760;2022-11-15T10:41:21;4.60;;;1.63;;
20671;SDS011;10495;50.922;4.760;2022-11-15T10:46:44;4.50;;;1.60;;
20671;SDS011;10495;50.922;4.760;2022-11-15T10:49:17;1.90;;;1.00;;
20671;SDS011;10495;50.922;4.760;2022-11-15T10:51:54;5.90;;;1.50;;
20671;SDS011;10495;50.922;4.760;2022-11-15T10:54:23;6.40;;;1.83;;
20671;SDS011;10495;50.922;4.760;2022-11-15T10:57:10;5.03;;;1.37;;
20671;SDS011;10495;50.922;4.760;2022-11-15T10:59:40;2.67;;;1.23;;
20671;SDS011;10495;50.922;4.760;2022-11-15T11:04:56;2.17;;;1.10;;
20671;SDS011;10495;50.922;4.760;2022-11-15T11:07:27;3.80;;;1.30;;
20671;SDS011;10495;50.922;4.760;2022-11-15T11:10:03;8.00;;;1.50;;
20671;SDS011;10495;50.922;4.760;2022-11-15T11:12:47;7.50;;;1.70;;
20671;SDS011;10495;50.922;4.760;2022-11-15T11:15:14;6.97;;;1.40;;
20671;SDS011;10495;50.922;4.760;2022-11-15T11:20:38;3.83;;;1.40;;
20671;SDS011;10495;50.922;4.760;2022-11-15T11:26:07;7.40;;;1.57;;
20671;SDS011;10495;50.922;4.760;2022-11-15T11:47:40;7.53;;;1.43;;
20671;SDS011;10495;50.922;4.760;2022-11-15T11:50:15;4.07;;;1.17;;
20671;SDS011;10495;50.922;4.760;2022-11-15T11:57:59;3.37;;;1.00;;
20671;SDS011;10495;50.922;4.760;2022-11-15T12:00:40;4.67;;;1.00;;
20671;SDS011;10495;50.922;4.760;2022-11-15T12:03:16;3.03;;;1.10;;
20671;SDS011;10495;50.922;4.760;2022-11-15T12:06:05;3.40;;;1.50;;
20671;SDS011;10495;50.922;4.760;2022-11-15T12:08:49;3.40;;;1.00;;
20671;SDS011;10495;50.922;4.760;2022-11-15T12:13:48;1.60;;;1.00;;
20671;SDS011;10495;50.922;4.760;2022-11-15T12:18:49;6.40;;;1.80;;
20671;SDS011;10495;50.922;4.760;2022-11-15T12:24:40;6.47;;;2.53;;
20671;SDS011;10495;50.922;4.760;2022-11-15T12:29:56;3.53;;;1.40;;
20671;SDS011;10495;50.922;4.760;2022-11-15T12:32:26;5.93;;;2.10;;
20671;SDS011;10495;50.922;4.760;2022-11-15T12:34:52;4.53;;;1.40;;
20671;SDS011;10495;50.922;4.760;2022-11-15T12:40:05;4.63;;;1.13;;
20671;SDS011;10495;50.922;4.760;2022-11-15T12:43:03;3.23;;;1.20;;
20671;SDS011;10495;50.922;4.760;2022-11-15T12:45:36;6.23;;;1.60;;
20671;SDS011;10495;50.922;4.760;2022-11-15T12:53:25;2.73;;;1.30;;
20671;SDS011;10495;50.922;4.760;2022-11-15T12:56:08;3.77;;;1.50;;
20671;SDS011;10495;50.922;4.760;2022-11-15T12:58:44;2.27;;;1.27;;
20671;SDS011;10495;50.922;4.760;2022-11-15T13:12:03;5.13;;;1.50;;
20671;SDS011;10495;50.922;4.760;2022-11-15T13:14:45;5.43;;;1.70;;
20671;SDS011;10495;50.922;4.760;2022-11-15T13:17:18;4.90;;;1.20;;
20671;SDS011;10495;50.922;4.760;2022-11-15T13:22:24;2.43;;;1.30;;
20671;SDS011;10495;50.922;4.760;2022-11-15T13:27:59;3.13;;;1.70;;
20671;SDS011;10495;50.922;4.760;2022-11-15T13:30:27;3.30;;;1.40;;
20671;SDS011;10495;50.922;4.760;2022-11-15T13:32:55;2.13;;;1.10;;
20671;SDS011;10495;50.922;4.760;2022-11-15T13:35:26;4.17;;;1.60;;
20671;SDS011;10495;50.922;4.760;2022-11-15T13:37:54;3.43;;;1.60;;
20671;SDS011;10495;50.922;4.760;2022-11-15T13:40:27;3.00;;;1.30;;
20671;SDS011;10495;50.922;4.760;2022-11-15T13:42:57;3.83;;;2.00;;
20671;SDS011;10495;50.922;4.760;2022-11-15T13:45:24;4.17;;;2.00;;
20671;SDS011;10495;50.922;4.760;2022-11-15T13:47:54;4.13;;;1.97;;
20671;SDS011;10495;50.922;4.760;2022-11-15T13:50:22;5.87;;;1.50;;
20671;SDS011;10495;50.922;4.760;2022-11-15T13:52:56;6.17;;;1.87;;
20671;SDS011;10495;50.922;4.760;2022-11-15T13:55:23;4.23;;;1.77;;
20671;SDS011;10495;50.922;4.760;2022-11-15T13:57:51;3.47;;;2.00;;
20671;SDS011;10495;50.922;4.760;2022-11-15T14:00:36;3.63;;;1.90;;
20671;SDS011;10495;50.922;4.760;2022-11-15T14:03:12;3.03;;;1.87;;
20671;SDS011;10495;50.922;4.760;2022-11-15T14:05:46;3.20;;;1.87;;
20671;SDS011;10495;50.922;4.760;2022-11-15T14:09:00;4.77;;;1.83;;
20671;SDS011;10495;50.922;4.760;2022-11-15T14:11:23;8.20;;;4.30;;
20671;SDS011;10495;50.922;4.760;2022-11-15T14:16:47;3.87;;;1.93;;
20671;SDS011;10495;50.922;4.760;2022-11-15T14:19:34;5.27;;;2.07;;
20671;SDS011;10495;50.922;4.760;2022-11-15T14:22:11;3.20;;;1.37;;
20671;SDS011;10495;50.922;4.760;2022-11-15T14:24:44;4.27;;;1.83;;
20671;SDS011;10495;50.922;4.760;2022-11-15T14:27:17;3.83;;;2.07;;
20671;SDS011;10495;50.922;4.760;2022-11-15T14:29:51;4.00;;;1.70;;
20671;SDS011;10495;50.922;4.760;2022-11-15T14:32:18;2.87;;;1.77;;
20671;SDS011;10495;50.922;4.760;2022-11-15T14:34:48;2.63;;;1.83;;
20671;SDS011;10495;50.922;4.760;2022-11-15T14:37:22;3.50;;;1.73;;
20671;SDS011;10495;50.922;4.760;2022-11-15T14:39:52;2.03;;;1.70;;
20671;SDS011;10495;50.922;4.760;2022-11-15T14:42:19;2.57;;;1.80;;
20671;SDS011;10495;50.922;4.760;2022-11-15T14:44:45;3.40;;;2.20;;
20671;SDS011;10495;50.922;4.760;2022-11-15T14:47:12;2.53;;;1.67;;
20671;SDS011;10495;50.922;4.760;2022-11-15T14:49:38;3.47;;;1.90;;
20671;SDS011;10495;50.922;4.760;2022-11-15T14:52:10;2.87;;;1.50;;
20671;SDS011;10495;50.922;4.760;2022-11-15T14:54:55;1.93;;;1.53;;
20671;SDS011;10495;50.922;4.760;2022-11-15T14:57:21;5.10;;;2.40;;
20671;SDS011;10495;50.922;4.760;2022-11-15T14:59:47;4.40;;;2.60;;
20671;SDS011;10495;50.922;4.760;2022-11-15T15:02:14;7.47;;;4.00;;
20671;SDS011;10495;50.922;4.760;2022-11-15T15:04:45;2.90;;;2.07;;
20671;SDS011;10495;50.922;4.760;2022-11-15T15:07:11;2.10;;;1.77;;
20671;SDS011;10495;50.922;4.760;2022-11-15T15:09:37;6.97;;;2.60;;
20671;SDS011;10495;50.922;4.760;2022-11-15T15:12:03;4.50;;;2.77;;
20671;SDS011;10495;50.922;4.760;2022-11-15T15:14:29;5.87;;;3.90;;
20671;SDS011;10495;50.922;4.760;2022-11-15T15:16:54;4.93;;;2.77;;
20671;SDS011;10495;50.922;4.760;2022-11-15T15:19:20;5.23;;;3.40;;
20671;SDS011;10495;50.922;4.760;2022-11-15T15:21:45;5.47;;;3.07;;
20671;SDS011;10495;50.922;4.760;2022-11-15T15:24:13;6.07;;;3.17;;
20671;SDS011;10495;50.922;4.760;2022-11-15T15:26:40;9.10;;;4.10;;
20671;SDS011;10495;50.922;4.760;2022-11-15T15:29:05;11.47;;;7.23;;
20671;SDS011;10495;50.922;4.760;2022-11-15T15:31:33;15.13;;;7.10;;
20671;SDS011;10495;50.922;4.760;2022-11-15T15:33:59;21.90;;;9.43;;
20671;SDS011;10495;50.922;4.760;2022-11-15T15:36:24;24.63;;;10.73;;
20671;SDS011;10495;50.922;4.760;2022-11-15T15:38:50;5.63;;;3.13;;
20671;SDS011;10495;50.922;4.760;2022-11-15T15:41:16;13.43;;;8.73;;
20671;SDS011;10495;50.922;4.760;2022-11-15T15:43:42;5.67;;;3.53;;
20671;SDS011;10495;50.922;4.760;2022-11-15T15:46:09;4.67;;;2.67;;
20671;SDS011;10495;50.922;4.760;2022-11-15T15:48:36;3.30;;;2.10;;
20671;SDS011;10495;50.922;4.760;2022-11-15T15:51:10;4.80;;;2.83;;
20671;SDS011;10495;50.922;4.760;2022-11-15T15:53:36;4.10;;;3.33;;
20671;SDS011;10495;50.922;4.760;2022-11-15T15:56:04;4.17;;;2.97;;
20671;SDS011;10495;50.922;4.760;2022-11-15T15:58:32;4.20;;;3.00;;
20671;SDS011;10495;50.922;4.760;2022-11-15T16:00:58;4.63;;;3.20;;
20671;SDS011;10495;50.922;4.760;2022-11-15T16:03:24;8.03;;;3.53;;
20671;SDS011;10495;50.922;4.760;2022-11-15T16:05:50;3.67;;;2.53;;
20671;SDS011;10495;50.922;4.760;2022-11-15T16:08:19;2.70;;;2.10;;
20671;SDS011;10495;50.922;4.760;2022-11-15T16:10:46;3.87;;;2.70;;
20671;SDS011;10495;50.922;4.760;2022-11-15T16:13:12;4.37;;;3.17;;
20671;SDS011;10495;50.922;4.760;2022-11-15T16:15:38;5.37;;;3.63;;
20671;SDS011;10495;50.922;4.760;2022-11-15T16:18:04;4.90;;;2.70;;
20671;SDS011;10495;50.922;4.760;2022-11-15T16:23:09;4.33;;;2.90;;
20671;SDS011;10495;50.922;4.760;2022-11-15T16:25:58;5.57;;;2.70;;
20671;SDS011;10495;50.922;4.760;2022-11-15T16:30:58;4.13;;;2.63;;
20671;SDS011;10495;50.922;4.760;2022-11-15T16:33:34;6.03;;;3.40;;
20671;SDS011;10495;50.922;4.760;2022-11-15T16:36:00;4.50;;;3.40;;
20671;SDS011;10495;50.922;4.760;2022-11-15T16:38:25;8.00;;;5.23;;
20671;SDS011;10495;50.922;4.760;2022-11-15T16:40:51;3.37;;;2.50;;
20671;SDS011;10495;50.922;4.760;2022-11-15T16:43:17;7.60;;;4.10;;
20671;SDS011;10495;50.922;4.760;2022-11-15T16:45:42;2.63;;;2.40;;
20671;SDS011;10495;50.922;4.760;2022-11-15T16:48:22;5.27;;;3.43;;
20671;SDS011;10495;50.922;4.760;2022-11-15T16:50:49;5.60;;;3.17;;
20671;SDS011;10495;50.922;4.760;2022-11-15T16:53:15;6.97;;;3.50;;
20671;SDS011;10495;50.922;4.760;2022-11-15T16:55:41;5.10;;;3.70;;